Pittsburgh, PA (15224)

10:01 AM EST on January 26, 2015 (GMT -0500)
Shadyside | Change Station
CLOSE
Current Station
Personal Weather Station
Location: Pittsburgh, PA
Elevation: 889 ft
Nearby Weather Stations

Elev 889 ft 40.45 °N, 79.94 °W | Updated 14 minutes ago

Snow
Snow
30.4 °F
Feels Like 30 °F
N
0.0
Wind Variable Wind from East
Gusts 1.0 mph

Today
High -- | Low -- °F
--% Chance of Precip.
Yesterday
High -- | Low -- °F
Precip. -- in
7:34 AM 5:30 PM
Waxing Crescent, 44% visible
Pressure 29.73 in
Visibility 0.2 miles
Clouds Overcast 400 ft
Windchill 30 °F
Dew Point 28 °F
Humidity 92%
Rainfall 0.00 in
Snow Depth Not available.
UV 0 out of 12
Pollen .10 out of 12
Air Quality Not available.
Flu Activity Not available.
METAR KAGC 261453Z AUTO 02005KT 1/4SM R28/3000V4000FT SN FZFG OVC004 M02/M04 A2968 RMK AO2 SLP067 P0004 60005 T10221039 51004 TSNO

More Conditions Fewer Conditions

Pressure 29.73 in
Visibility 0.2 miles
Clouds Overcast 400 ft
Windchill 30 °F
Dew Point 28 °F
Humidity 92%
Rainfall 0.00 in
Snow Depth Not available.
UV 0 out of 12
Pollen .10 out of 12
Air Quality Not available.
Flu Activity Not available.
METAR KAGC 261453Z AUTO 02005KT 1/4SM R28/3000V4000FT SN FZFG OVC004 M02/M04 A2968 RMK AO2 SLP067 P0004 60005 T10221039 51004 TSNO

More Conditions Fewer Conditions

10-Day Weather Forecast

Almanac

Astronomy

Jan. 26, 2015 Rise Set
Actual Time
Civil Twilight
Nautical Twilight
Astronomical Twilight
Moon
Length of Visible Light
Length of Day
Tomorrow will be .
, % of the Moon is Illuminated

Today's Extremes

State Highs State Lows

Community

WunderPhotos

Upload Photos

1,790,232 photos uploaded!

WunderBlogs® & News

Nearby

Air Quality

  Air Quality AQ Index Pollutant
Not available.

Snow Depth

Station Depth Elevation

Earthquake Activity

City Distance Mag. Time & Date
Minimum magnitude displayed is 2.5.

Coastal Water Temperatures

Place Temperature

Nearby Weather Stations